createdAt,value
2023-01-07T00:00:06.440Z,25.27
2023-01-07T00:02:34.542Z,23.87
2023-01-07T00:05:04.064Z,24.27
2023-01-07T00:07:32.134Z,24.50
2023-01-07T00:10:00.238Z,24.07
2023-01-07T00:12:28.220Z,23.90
2023-01-07T00:14:56.271Z,24.63
2023-01-07T00:17:24.354Z,23.70
2023-01-07T00:19:52.449Z,24.00
2023-01-07T00:22:21.843Z,26.00
2023-01-07T00:24:49.885Z,24.63
2023-01-07T00:27:18.025Z,25.87
2023-01-07T00:29:46.075Z,24.93
2023-01-07T00:32:14.122Z,25.10
2023-01-07T00:34:45.222Z,25.60
2023-01-07T00:37:32.789Z,26.37
2023-01-07T00:40:02.359Z,25.20
2023-01-07T00:42:47.638Z,26.17
2023-01-07T00:45:15.741Z,26.03
2023-01-07T00:47:43.955Z,25.20
2023-01-07T00:50:11.988Z,25.00
2023-01-07T00:52:40.037Z,27.03
2023-01-07T00:55:11.138Z,25.40
2023-01-07T00:57:39.178Z,23.77
2023-01-07T01:00:08.513Z,25.53
2023-01-07T01:02:36.608Z,25.53
2023-01-07T01:05:06.214Z,27.43
2023-01-07T01:07:34.863Z,27.27
2023-01-07T01:10:06.988Z,27.10
2023-01-07T01:12:37.124Z,28.20
2023-01-07T01:15:07.001Z,28.10
2023-01-07T01:17:35.055Z,28.13
2023-01-07T01:20:03.453Z,26.73
2023-01-07T01:22:31.494Z,27.07
2023-01-07T01:24:59.494Z,26.10
2023-01-07T01:27:27.468Z,25.93
2023-01-07T01:29:56.810Z,25.43
2023-01-07T01:32:24.881Z,24.80
2023-01-07T01:34:52.991Z,24.00
2023-01-07T01:37:21.043Z,23.00
2023-01-07T01:39:51.540Z,22.67
2023-01-07T01:42:23.663Z,22.67
2023-01-07T01:44:53.269Z,22.17
2023-01-07T01:47:30.649Z,22.83
2023-01-07T01:50:02.343Z,23.70
2023-01-07T01:52:35.919Z,22.67
2023-01-07T01:55:08.299Z,23.00
2023-01-07T01:57:38.238Z,23.63
2023-01-07T02:00:10.622Z,23.57
2023-01-07T02:02:47.604Z,23.87
2023-01-07T02:05:16.566Z,24.03
2023-01-07T02:07:44.597Z,25.17
2023-01-07T02:10:16.002Z,25.93
2023-01-07T02:13:08.217Z,25.13
2023-01-07T02:15:45.979Z,25.37
2023-01-07T02:18:30.068Z,26.40
2023-01-07T02:21:07.316Z,27.10
2023-01-07T02:24:13.938Z,26.87
2023-01-07T02:27:10.379Z,25.57
2023-01-07T02:30:20.294Z,26.23
2023-01-07T02:33:09.531Z,26.20
2023-01-07T02:35:53.149Z,27.30
2023-01-07T02:38:28.217Z,26.47
2023-01-07T02:41:04.374Z,27.20
2023-01-07T02:43:40.981Z,26.47
2023-01-07T02:46:15.699Z,26.30
2023-01-07T02:48:46.237Z,26.27
2023-01-07T02:51:14.396Z,26.17
2023-01-07T02:53:46.164Z,26.70
2023-01-07T02:56:26.512Z,27.47
2023-01-07T02:59:18.696Z,25.47
2023-01-07T03:02:16.219Z,26.63
2023-01-07T03:05:05.410Z,25.97
2023-01-07T03:07:46.754Z,27.70
2023-01-07T03:10:22.636Z,27.67
2023-01-07T03:12:55.398Z,29.20
2023-01-07T03:15:29.244Z,29.37
2023-01-07T03:18:02.702Z,28.80
2023-01-07T03:20:35.359Z,28.53
2023-01-07T03:23:07.670Z,30.23
2023-01-07T03:25:40.339Z,29.73
2023-01-07T03:28:10.622Z,29.93
2023-01-07T03:30:39.586Z,31.40
2023-01-07T03:33:13.403Z,30.03
2023-01-07T03:35:46.219Z,30.73
2023-01-07T03:38:16.010Z,29.87
2023-01-07T03:40:44.249Z,30.47
2023-01-07T03:43:13.444Z,31.30
2023-01-07T03:45:42.546Z,29.97
2023-01-07T03:48:10.597Z,30.53
2023-01-07T03:50:38.644Z,29.63
2023-01-07T03:53:08.505Z,29.30
2023-01-07T03:55:36.796Z,27.33
2023-01-07T03:58:04.791Z,27.67
2023-01-07T04:00:32.903Z,26.47
2023-01-07T04:03:00.990Z,27.23
2023-01-07T04:05:29.081Z,24.87
2023-01-07T04:07:57.049Z,25.53
2023-01-07T04:10:26.471Z,25.93
2023-01-07T04:12:54.470Z,25.80
2023-01-07T04:15:22.527Z,25.77
2023-01-07T04:17:50.742Z,23.87
2023-01-07T04:20:25.031Z,25.87
2023-01-07T04:22:53.049Z,25.80
2023-01-07T04:25:21.071Z,26.67
2023-01-07T04:27:50.646Z,25.50
2023-01-07T04:30:18.832Z,26.40
2023-01-07T04:32:46.844Z,26.33
2023-01-07T04:35:14.807Z,25.37
2023-01-07T04:37:42.857Z,25.33
2023-01-07T04:40:11.790Z,25.93
2023-01-07T04:42:39.774Z,25.10
2023-01-07T04:45:10.375Z,26.50
2023-01-07T04:47:38.437Z,26.43
2023-01-07T04:50:07.333Z,26.93
2023-01-07T04:52:35.381Z,29.10
